sensor_id;sensor_type;location;lat;lon;timestamp;P1;durP1;ratioP1;P2;durP2;ratioP2
84144;SDS011;74264;48.988;12.040;2024-03-23T00:55:52;77.25;;;31.38;;
84144;SDS011;74264;48.988;12.040;2024-03-23T00:58:18;81.90;;;33.72;;
84144;SDS011;74264;48.988;12.040;2024-03-23T01:00:43;87.18;;;32.90;;
84144;SDS011;74264;48.988;12.040;2024-03-23T01:03:09;130.70;;;39.30;;
84144;SDS011;74264;48.988;12.040;2024-03-23T01:05:34;79.90;;;31.08;;
84144;SDS011;74264;48.988;12.040;2024-03-23T01:08:00;98.03;;;35.95;;
84144;SDS011;74264;48.988;12.040;2024-03-23T01:10:25;73.45;;;30.45;;
84144;SDS011;74264;48.988;12.040;2024-03-23T01:12:51;98.32;;;34.40;;
84144;SDS011;74264;48.988;12.040;2024-03-23T01:15:16;54.78;;;25.75;;
84144;SDS011;74264;48.988;12.040;2024-03-23T01:17:42;93.15;;;35.05;;
84144;SDS011;74264;48.988;12.040;2024-03-23T01:20:08;79.18;;;31.88;;
84144;SDS011;74264;48.988;12.040;2024-03-23T01:22:33;78.53;;;31.17;;
84144;SDS011;74264;48.988;12.040;2024-03-23T01:24:59;90.45;;;36.47;;
84144;SDS011;74264;48.988;12.040;2024-03-23T01:27:24;105.22;;;39.65;;
84144;SDS011;74264;48.988;12.040;2024-03-23T01:29:50;108.72;;;38.13;;
84144;SDS011;74264;48.988;12.040;2024-03-23T01:32:17;95.22;;;36.83;;
84144;SDS011;74264;48.988;12.040;2024-03-23T01:34:44;86.18;;;34.47;;
84144;SDS011;74264;48.988;12.040;2024-03-23T01:37:09;98.15;;;39.00;;
84144;SDS011;74264;48.988;12.040;2024-03-23T01:39:35;157.98;;;48.25;;
84144;SDS011;74264;48.988;12.040;2024-03-23T01:42:00;141.05;;;43.83;;
84144;SDS011;74264;48.988;12.040;2024-03-23T01:44:26;108.10;;;40.83;;
84144;SDS011;74264;48.988;12.040;2024-03-23T01:46:51;93.53;;;38.70;;
84144;SDS011;74264;48.988;12.040;2024-03-23T01:49:17;102.63;;;39.90;;
84144;SDS011;74264;48.988;12.040;2024-03-23T01:51:43;106.75;;;38.92;;
84144;SDS011;74264;48.988;12.040;2024-03-23T01:54:10;112.75;;;42.53;;
84144;SDS011;74264;48.988;12.040;2024-03-23T01:56:36;95.47;;;37.55;;
84144;SDS011;74264;48.988;12.040;2024-03-23T01:59:02;91.18;;;38.50;;
84144;SDS011;74264;48.988;12.040;2024-03-23T02:01:28;86.07;;;36.70;;
84144;SDS011;74264;48.988;12.040;2024-03-23T02:03:54;132.32;;;41.97;;
84144;SDS011;74264;48.988;12.040;2024-03-23T02:06:19;132.80;;;41.95;;
84144;SDS011;74264;48.988;12.040;2024-03-23T02:08:45;106.38;;;38.17;;
84144;SDS011;74264;48.988;12.040;2024-03-23T02:11:11;121.88;;;40.25;;
84144;SDS011;74264;48.988;12.040;2024-03-23T02:13:36;120.03;;;40.38;;
84144;SDS011;74264;48.988;12.040;2024-03-23T02:16:02;114.07;;;40.22;;
84144;SDS011;74264;48.988;12.040;2024-03-23T02:18:27;138.00;;;41.38;;
84144;SDS011;74264;48.988;12.040;2024-03-23T02:20:53;119.38;;;37.03;;
84144;SDS011;74264;48.988;12.040;2024-03-23T02:23:18;75.90;;;30.92;;
84144;SDS011;74264;48.988;12.040;2024-03-23T02:25:44;114.40;;;36.45;;
84144;SDS011;74264;48.988;12.040;2024-03-23T02:28:10;89.68;;;33.97;;
84144;SDS011;74264;48.988;12.040;2024-03-23T02:30:36;105.88;;;37.42;;
84144;SDS011;74264;48.988;12.040;2024-03-23T02:33:02;200.15;;;48.53;;
84144;SDS011;74264;48.988;12.040;2024-03-23T02:35:27;166.95;;;41.97;;
84144;SDS011;74264;48.988;12.040;2024-03-23T02:37:53;173.77;;;48.05;;
84144;SDS011;74264;48.988;12.040;2024-03-23T02:40:19;167.10;;;49.70;;
84144;SDS011;74264;48.988;12.040;2024-03-23T02:42:45;174.82;;;53.13;;
84144;SDS011;74264;48.988;12.040;2024-03-23T02:45:11;216.27;;;51.10;;
84144;SDS011;74264;48.988;12.040;2024-03-23T02:47:36;238.40;;;54.88;;
84144;SDS011;74264;48.988;12.040;2024-03-23T02:50:02;171.93;;;46.47;;
84144;SDS011;74264;48.988;12.040;2024-03-23T02:52:28;136.40;;;43.58;;
84144;SDS011;74264;48.988;12.040;2024-03-23T02:54:54;141.20;;;45.25;;
84144;SDS011;74264;48.988;12.040;2024-03-23T02:57:19;196.63;;;52.00;;
84144;SDS011;74264;48.988;12.040;2024-03-23T02:59:45;130.27;;;44.17;;
84144;SDS011;74264;48.988;12.040;2024-03-23T03:02:11;239.52;;;60.60;;
84144;SDS011;74264;48.988;12.040;2024-03-23T03:04:36;170.25;;;53.90;;
84144;SDS011;74264;48.988;12.040;2024-03-23T03:07:02;275.17;;;60.40;;
84144;SDS011;74264;48.988;12.040;2024-03-23T03:09:27;131.38;;;45.65;;
84144;SDS011;74264;48.988;12.040;2024-03-23T03:11:53;149.10;;;46.20;;
84144;SDS011;74264;48.988;12.040;2024-03-23T03:14:18;118.95;;;42.50;;
84144;SDS011;74264;48.988;12.040;2024-03-23T03:16:45;141.75;;;45.00;;
84144;SDS011;74264;48.988;12.040;2024-03-23T03:19:10;121.45;;;43.83;;
84144;SDS011;74264;48.988;12.040;2024-03-23T03:21:36;89.72;;;38.10;;
84144;SDS011;74264;48.988;12.040;2024-03-23T03:24:02;120.22;;;43.50;;
84144;SDS011;74264;48.988;12.040;2024-03-23T03:26:29;118.55;;;42.42;;
84144;SDS011;74264;48.988;12.040;2024-03-23T03:28:54;102.07;;;38.40;;
84144;SDS011;74264;48.988;12.040;2024-03-23T03:31:20;159.70;;;48.22;;
84144;SDS011;74264;48.988;12.040;2024-03-23T03:33:46;180.85;;;48.00;;
84144;SDS011;74264;48.988;12.040;2024-03-23T03:36:11;100.53;;;38.33;;
84144;SDS011;74264;48.988;12.040;2024-03-23T03:38:37;80.22;;;34.80;;
84144;SDS011;74264;48.988;12.040;2024-03-23T03:41:04;76.88;;;35.35;;
84144;SDS011;74264;48.988;12.040;2024-03-23T03:43:31;85.80;;;36.38;;
84144;SDS011;74264;48.988;12.040;2024-03-23T03:45:57;106.28;;;38.47;;
84144;SDS011;74264;48.988;12.040;2024-03-23T03:48:24;87.68;;;37.17;;
84144;SDS011;74264;48.988;12.040;2024-03-23T03:50:49;112.22;;;40.03;;
84144;SDS011;74264;48.988;12.040;2024-03-23T03:53:15;81.95;;;34.67;;
84144;SDS011;74264;48.988;12.040;2024-03-23T03:55:41;52.72;;;28.15;;
84144;SDS011;74264;48.988;12.040;2024-03-23T03:58:07;59.60;;;30.77;;
84144;SDS011;74264;48.988;12.040;2024-03-23T04:00:33;55.33;;;30.08;;
84144;SDS011;74264;48.988;12.040;2024-03-23T04:02:58;53.33;;;28.27;;
84144;SDS011;74264;48.988;12.040;2024-03-23T04:05:24;49.58;;;24.83;;
84144;SDS011;74264;48.988;12.040;2024-03-23T04:07:50;41.58;;;22.55;;
84144;SDS011;74264;48.988;12.040;2024-03-23T04:10:15;49.55;;;25.67;;
84144;SDS011;74264;48.988;12.040;2024-03-23T04:12:41;57.35;;;28.13;;
84144;SDS011;74264;48.988;12.040;2024-03-23T04:15:08;56.80;;;26.52;;
84144;SDS011;74264;48.988;12.040;2024-03-23T04:17:33;42.63;;;22.75;;
84144;SDS011;74264;48.988;12.040;2024-03-23T04:19:59;41.22;;;21.63;;
84144;SDS011;74264;48.988;12.040;2024-03-23T04:22:26;36.05;;;20.25;;
84144;SDS011;74264;48.988;12.040;2024-03-23T04:24:55;47.95;;;24.08;;
84144;SDS011;74264;48.988;12.040;2024-03-23T04:27:22;43.42;;;22.13;;
84144;SDS011;74264;48.988;12.040;2024-03-23T04:29:51;39.63;;;21.85;;
84144;SDS011;74264;48.988;12.040;2024-03-23T04:32:18;35.10;;;20.73;;
84144;SDS011;74264;48.988;12.040;2024-03-23T04:34:44;38.95;;;22.08;;
84144;SDS011;74264;48.988;12.040;2024-03-23T04:37:10;28.38;;;18.08;;
84144;SDS011;74264;48.988;12.040;2024-03-23T04:39:35;30.60;;;17.85;;
84144;SDS011;74264;48.988;12.040;2024-03-23T04:42:03;31.27;;;16.17;;
84144;SDS011;74264;48.988;12.040;2024-03-23T04:44:29;28.88;;;15.77;;
84144;SDS011;74264;48.988;12.040;2024-03-23T04:46:56;19.27;;;13.50;;
84144;SDS011;74264;48.988;12.040;2024-03-23T04:49:25;21.67;;;13.38;;
84144;SDS011;74264;48.988;12.040;2024-03-23T04:51:51;25.00;;;12.98;;
84144;SDS011;74264;48.988;12.040;2024-03-23T04:54:16;22.60;;;14.02;;
84144;SDS011;74264;48.988;12.040;2024-03-23T04:56:42;21.35;;;14.00;;
84144;SDS011;74264;48.988;12.040;2024-03-23T04:59:08;18.25;;;13.48;;
84144;SDS011;74264;48.988;12.040;2024-03-23T05:01:34;17.25;;;11.23;;
84144;SDS011;74264;48.988;12.040;2024-03-23T05:04:02;20.27;;;13.02;;
84144;SDS011;74264;48.988;12.040;2024-03-23T05:06:27;23.95;;;14.23;;
84144;SDS011;74264;48.988;12.040;2024-03-23T05:08:54;21.52;;;13.95;;
84144;SDS011;74264;48.988;12.040;2024-03-23T05:11:19;14.20;;;10.68;;
84144;SDS011;74264;48.988;12.040;2024-03-23T05:13:46;22.10;;;12.63;;
84144;SDS011;74264;48.988;12.040;2024-03-23T05:16:11;20.33;;;12.88;;
84144;SDS011;74264;48.988;12.040;2024-03-23T05:18:37;18.65;;;10.27;;
84144;SDS011;74264;48.988;12.040;2024-03-23T05:21:02;16.17;;;10.10;;
84144;SDS011;74264;48.988;12.040;2024-03-23T05:23:28;16.45;;;11.30;;
84144;SDS011;74264;48.988;12.040;2024-03-23T05:25:54;15.35;;;10.05;;
84144;SDS011;74264;48.988;12.040;2024-03-23T05:28:21;14.38;;;9.50;;
84144;SDS011;74264;48.988;12.040;2024-03-23T05:30:50;14.40;;;8.85;;
84144;SDS011;74264;48.988;12.040;2024-03-23T05:33:17;12.13;;;8.95;;
84144;SDS011;74264;48.988;12.040;2024-03-23T05:35:44;13.90;;;9.48;;
84144;SDS011;74264;48.988;12.040;2024-03-23T05:38:10;15.77;;;10.85;;
84144;SDS011;74264;48.988;12.040;2024-03-23T05:40:35;16.00;;;10.38;;
84144;SDS011;74264;48.988;12.040;2024-03-23T05:43:03;12.63;;;9.27;;
84144;SDS011;74264;48.988;12.040;2024-03-23T05:45:29;11.15;;;8.35;;
84144;SDS011;74264;48.988;12.040;2024-03-23T05:47:55;16.83;;;10.60;;
84144;SDS011;74264;48.988;12.040;2024-03-23T05:50:22;11.02;;;8.23;;
84144;SDS011;74264;48.988;12.040;2024-03-23T05:52:48;19.40;;;10.45;;
84144;SDS011;74264;48.988;12.040;2024-03-23T05:55:14;14.65;;;9.68;;
84144;SDS011;74264;48.988;12.040;2024-03-23T05:57:40;10.95;;;8.63;;
84144;SDS011;74264;48.988;12.040;2024-03-23T06:00:06;12.55;;;8.52;;
84144;SDS011;74264;48.988;12.040;2024-03-23T06:02:41;13.70;;;8.23;;
84144;SDS011;74264;48.988;12.040;2024-03-23T06:05:10;15.60;;;8.45;;
84144;SDS011;74264;48.988;12.040;2024-03-23T06:07:37;11.02;;;7.28;;
84144;SDS011;74264;48.988;12.040;2024-03-23T06:10:03;11.52;;;7.47;;
84144;SDS011;74264;48.988;12.040;2024-03-23T06:12:29;13.90;;;8.60;;
84144;SDS011;74264;48.988;12.040;2024-03-23T06:14:55;11.77;;;6.78;;
84144;SDS011;74264;48.988;12.040;2024-03-23T06:17:21;12.45;;;7.93;;
84144;SDS011;74264;48.988;12.040;2024-03-23T06:19:46;11.40;;;7.35;;
84144;SDS011;74264;48.988;12.040;2024-03-23T06:22:12;9.52;;;6.47;;
84144;SDS011;74264;48.988;12.040;2024-03-23T06:24:38;10.93;;;7.47;;
84144;SDS011;74264;48.988;12.040;2024-03-23T06:27:04;9.98;;;6.75;;
84144;SDS011;74264;48.988;12.040;2024-03-23T06:29:29;11.93;;;6.88;;
84144;SDS011;74264;48.988;12.040;2024-03-23T06:31:55;9.13;;;6.45;;
84144;SDS011;74264;48.988;12.040;2024-03-23T06:34:21;8.65;;;7.20;;
84144;SDS011;74264;48.988;12.040;2024-03-23T06:36:48;10.60;;;6.55;;
84144;SDS011;74264;48.988;12.040;2024-03-23T06:39:14;10.15;;;6.15;;
84144;SDS011;74264;48.988;12.040;2024-03-23T06:41:51;7.15;;;6.15;;
84144;SDS011;74264;48.988;12.040;2024-03-23T06:44:18;7.32;;;6.00;;
84144;SDS011;74264;48.988;12.040;2024-03-23T06:46:44;9.30;;;5.82;;
84144;SDS011;74264;48.988;12.040;2024-03-23T06:49:10;7.38;;;5.32;;
84144;SDS011;74264;48.988;12.040;2024-03-23T06:51:36;12.15;;;5.95;;
84144;SDS011;74264;48.988;12.040;2024-03-23T06:54:04;6.68;;;5.75;;
84144;SDS011;74264;48.988;12.040;2024-03-23T06:56:30;6.43;;;5.60;;
84144;SDS011;74264;48.988;12.040;2024-03-23T06:58:56;5.65;;;5.15;;
84144;SDS011;74264;48.988;12.040;2024-03-23T07:01:22;8.77;;;6.82;;
84144;SDS011;74264;48.988;12.040;2024-03-23T07:03:48;9.73;;;6.22;;
84144;SDS011;74264;48.988;12.040;2024-03-23T07:06:14;7.10;;;6.40;;
84144;SDS011;74264;48.988;12.040;2024-03-23T07:08:39;12.75;;;6.78;;
84144;SDS011;74264;48.988;12.040;2024-03-23T07:11:05;7.82;;;5.95;;
84144;SDS011;74264;48.988;12.040;2024-03-23T07:13:30;9.38;;;6.95;;
84144;SDS011;74264;48.988;12.040;2024-03-23T07:15:56;7.70;;;5.78;;
84144;SDS011;74264;48.988;12.040;2024-03-23T07:18:22;8.00;;;5.35;;
84144;SDS011;74264;48.988;12.040;2024-03-23T07:20:55;5.80;;;5.30;;
84144;SDS011;74264;48.988;12.040;2024-03-23T07:23:24;5.95;;;5.45;;
84144;SDS011;74264;48.988;12.040;2024-03-23T07:25:59;10.10;;;5.10;;
84144;SDS011;74264;48.988;12.040;2024-03-23T07:28:26;10.35;;;5.57;;
84144;SDS011;74264;48.988;12.040;2024-03-23T07:31:02;5.65;;;5.05;;
84144;SDS011;74264;48.988;12.040;2024-03-23T07:33:34;8.57;;;5.10;;
84144;SDS011;74264;48.988;12.040;2024-03-23T07:36:01;7.20;;;4.43;;
84144;SDS011;74264;48.988;12.040;2024-03-23T07:38:28;7.05;;;4.40;;
84144;SDS011;74264;48.988;12.040;2024-03-23T07:43:28;7.00;;;4.07;;
84144;SDS011;74264;48.988;12.040;2024-03-23T07:45:54;6.80;;;2.83;;
84144;SDS011;74264;48.988;12.040;2024-03-23T07:48:23;10.18;;;3.60;;
84144;SDS011;74264;48.988;12.040;2024-03-23T07:51:06;8.85;;;2.80;;
84144;SDS011;74264;48.988;12.040;2024-03-23T07:53:32;3.22;;;2.70;;
84144;SDS011;74264;48.988;12.040;2024-03-23T07:56:00;6.22;;;2.75;;
84144;SDS011;74264;48.988;12.040;2024-03-23T07:58:29;4.00;;;3.60;;
84144;SDS011;74264;48.988;12.040;2024-03-23T08:00:55;4.43;;;3.30;;
84144;SDS011;74264;48.988;12.040;2024-03-23T08:05:53;4.38;;;3.65;;
84144;SDS011;74264;48.988;12.040;2024-03-23T08:08:19;4.82;;;3.58;;
84144;SDS011;74264;48.988;12.040;2024-03-23T08:10:48;5.63;;;3.38;;
84144;SDS011;74264;48.988;12.040;2024-03-23T08:13:15;4.22;;;3.03;;
84144;SDS011;74264;48.988;12.040;2024-03-23T08:15:40;3.60;;;3.30;;
84144;SDS011;74264;48.988;12.040;2024-03-23T08:18:06;3.65;;;3.33;;
84144;SDS011;74264;48.988;12.040;2024-03-23T08:20:32;3.70;;;3.40;;
84144;SDS011;74264;48.988;12.040;2024-03-23T08:22:57;3.55;;;3.20;;
84144;SDS011;74264;48.988;12.040;2024-03-23T08:25:23;3.80;;;3.30;;
84144;SDS011;74264;48.988;12.040;2024-03-23T08:27:48;5.15;;;3.72;;
84144;SDS011;74264;48.988;12.040;2024-03-23T08:30:14;4.25;;;3.55;;
84144;SDS011;74264;48.988;12.040;2024-03-23T08:32:40;3.13;;;2.83;;
84144;SDS011;74264;48.988;12.040;2024-03-23T08:35:05;3.78;;;3.47;;
84144;SDS011;74264;48.988;12.040;2024-03-23T08:37:32;3.20;;;2.95;;
84144;SDS011;74264;48.988;12.040;2024-03-23T08:39:57;2.72;;;2.53;;
84144;SDS011;74264;48.988;12.040;2024-03-23T08:42:23;2.58;;;2.40;;
84144;SDS011;74264;48.988;12.040;2024-03-23T08:44:49;4.97;;;3.55;;
84144;SDS011;74264;48.988;12.040;2024-03-23T08:47:18;2.38;;;2.10;;
84144;SDS011;74264;48.988;12.040;2024-03-23T08:49:44;2.72;;;2.47;;
84144;SDS011;74264;48.988;12.040;2024-03-23T08:52:10;4.25;;;2.50;;
84144;SDS011;74264;48.988;12.040;2024-03-23T08:54:35;2.97;;;2.55;;
84144;SDS011;74264;48.988;12.040;2024-03-23T08:57:01;2.70;;;2.50;;
84144;SDS011;74264;48.988;12.040;2024-03-23T08:59:27;5.03;;;2.60;;
84144;SDS011;74264;48.988;12.040;2024-03-23T09:01:53;2.70;;;2.50;;
84144;SDS011;74264;48.988;12.040;2024-03-23T09:04:19;4.07;;;3.58;;
84144;SDS011;74264;48.988;12.040;2024-03-23T09:06:44;2.97;;;2.65;;
84144;SDS011;74264;48.988;12.040;2024-03-23T09:09:10;3.22;;;2.95;;
84144;SDS011;74264;48.988;12.040;2024-03-23T09:11:35;3.22;;;2.92;;
84144;SDS011;74264;48.988;12.040;2024-03-23T09:14:02;3.50;;;3.25;;
84144;SDS011;74264;48.988;12.040;2024-03-23T09:16:28;3.05;;;2.85;;
84144;SDS011;74264;48.988;12.040;2024-03-23T09:18:54;3.25;;;2.83;;
84144;SDS011;74264;48.988;12.040;2024-03-23T09:21:20;3.45;;;2.58;;
84144;SDS011;74264;48.988;12.040;2024-03-23T09:23:45;3.35;;;3.10;;
84144;SDS011;74264;48.988;12.040;2024-03-23T09:26:11;4.78;;;3.00;;
84144;SDS011;74264;48.988;12.040;2024-03-23T09:28:37;2.92;;;2.55;;
84144;SDS011;74264;48.988;12.040;2024-03-23T09:31:03;3.88;;;3.00;;
84144;SDS011;74264;48.988;12.040;2024-03-23T09:33:30;2.88;;;2.40;;
84144;SDS011;74264;48.988;12.040;2024-03-23T09:35:55;3.67;;;3.00;;
84144;SDS011;74264;48.988;12.040;2024-03-23T09:38:22;4.20;;;3.80;;
84144;SDS011;74264;48.988;12.040;2024-03-23T09:40:48;2.45;;;2.05;;
84144;SDS011;74264;48.988;12.040;2024-03-23T09:43:18;2.60;;;2.38;;
84144;SDS011;74264;48.988;12.040;2024-03-23T09:45:44;3.20;;;2.40;;
84144;SDS011;74264;48.988;12.040;2024-03-23T09:48:10;2.30;;;2.10;;
84144;SDS011;74264;48.988;12.040;2024-03-23T09:50:39;2.15;;;1.92;;
84144;SDS011;74264;48.988;12.040;2024-03-23T09:53:09;2.35;;;2.17;;
84144;SDS011;74264;48.988;12.040;2024-03-23T09:55:39;1.92;;;1.83;;
84144;SDS011;74264;48.988;12.040;2024-03-23T09:58:08;1.67;;;1.58;;
84144;SDS011;74264;48.988;12.040;2024-03-23T10:00:37;2.13;;;1.90;;
84144;SDS011;74264;48.988;12.040;2024-03-23T10:03:04;2.10;;;2.00;;
84144;SDS011;74264;48.988;12.040;2024-03-23T10:05:31;1.88;;;1.60;;
84144;SDS011;74264;48.988;12.040;2024-03-23T10:08:00;1.23;;;1.23;;
84144;SDS011;74264;48.988;12.040;2024-03-23T10:10:26;1.48;;;1.40;;
84144;SDS011;74264;48.988;12.040;2024-03-23T10:12:51;3.22;;;1.35;;
84144;SDS011;74264;48.988;12.040;2024-03-23T10:15:18;1.55;;;1.45;;
84144;SDS011;74264;48.988;12.040;2024-03-23T10:17:45;1.00;;;1.00;;
84144;SDS011;74264;48.988;12.040;2024-03-23T10:20:11;1.85;;;1.25;;
84144;SDS011;74264;48.988;12.040;2024-03-23T10:22:37;1.20;;;1.20;;
84144;SDS011;74264;48.988;12.040;2024-03-23T10:25:07;1.30;;;1.30;;
84144;SDS011;74264;48.988;12.040;2024-03-23T10:27:33;1.50;;;1.40;;
84144;SDS011;74264;48.988;12.040;2024-03-23T10:30:07;1.70;;;1.60;;
84144;SDS011;74264;48.988;12.040;2024-03-23T10:32:37;3.20;;;1.50;;
84144;SDS011;74264;48.988;12.040;2024-03-23T10:35:16;1.00;;;1.00;;
84144;SDS011;74264;48.988;12.040;2024-03-23T10:37:49;1.00;;;1.00;;
84144;SDS011;74264;48.988;12.040;2024-03-23T10:40:16;0.70;;;0.70;;
84144;SDS011;74264;48.988;12.040;2024-03-23T10:42:43;0.55;;;0.55;;
84144;SDS011;74264;48.988;12.040;2024-03-23T10:45:12;1.38;;;0.52;;
84144;SDS011;74264;48.988;12.040;2024-03-23T10:47:37;0.90;;;0.90;;
84144;SDS011;74264;48.988;12.040;2024-03-23T10:50:03;0.63;;;0.63;;
84144;SDS011;74264;48.988;12.040;2024-03-23T10:52:33;2.90;;;1.02;;
84144;SDS011;74264;48.988;12.040;2024-03-23T10:54:59;2.75;;;2.45;;
84144;SDS011;74264;48.988;12.040;2024-03-23T10:57:36;0.70;;;0.70;;
84144;SDS011;74264;48.988;12.040;2024-03-23T11:00:05;1.50;;;0.60;;
84144;SDS011;74264;48.988;12.040;2024-03-23T11:02:31;0.70;;;0.70;;
84144;SDS011;74264;48.988;12.040;2024-03-23T11:04:57;0.70;;;0.70;;
84144;SDS011;74264;48.988;12.040;2024-03-23T11:09:49;1.05;;;0.70;;
84144;SDS011;74264;48.988;12.040;2024-03-23T11:15:01;0.80;;;0.80;;
84144;SDS011;74264;48.988;12.040;2024-03-23T11:17:31;0.85;;;0.63;;
84144;SDS011;74264;48.988;12.040;2024-03-23T11:19:58;0.95;;;0.70;;
84144;SDS011;74264;48.988;12.040;2024-03-23T11:22:46;3.53;;;0.82;;
84144;SDS011;74264;48.988;12.040;2024-03-23T11:27:47;2.78;;;2.53;;
84144;SDS011;74264;48.988;12.040;2024-03-23T11:32:53;0.93;;;0.80;;
84144;SDS011;74264;48.988;12.040;2024-03-23T11:40:43;0.40;;;0.40;;
84144;SDS011;74264;48.988;12.040;2024-03-23T11:43:14;1.55;;;1.45;;
84144;SDS011;74264;48.988;12.040;2024-03-23T11:45:50;0.80;;;0.70;;
84144;SDS011;74264;48.988;12.040;2024-03-23T11:48:18;0.90;;;0.90;;
84144;SDS011;74264;48.988;12.040;2024-03-23T11:50:58;1.30;;;0.93;;
84144;SDS011;74264;48.988;12.040;2024-03-23T11:53:24;1.25;;;0.85;;
84144;SDS011;74264;48.988;12.040;2024-03-23T11:55:56;0.93;;;0.88;;
84144;SDS011;74264;48.988;12.040;2024-03-23T11:58:24;0.90;;;0.90;;
84144;SDS011;74264;48.988;12.040;2024-03-23T12:01:00;0.93;;;0.70;;
84144;SDS011;74264;48.988;12.040;2024-03-23T12:03:29;1.77;;;1.25;;
84144;SDS011;74264;48.988;12.040;2024-03-23T12:05:58;0.77;;;0.77;;
84144;SDS011;74264;48.988;12.040;2024-03-23T12:08:29;1.65;;;1.10;;
84144;SDS011;74264;48.988;12.040;2024-03-23T12:11:08;3.40;;;1.00;;
84144;SDS011;74264;48.988;12.040;2024-03-23T12:13:37;0.60;;;0.60;;
84144;SDS011;74264;48.988;12.040;2024-03-23T12:18:53;0.95;;;0.75;;
84144;SDS011;74264;48.988;12.040;2024-03-23T12:21:31;0.60;;;0.60;;
84144;SDS011;74264;48.988;12.040;2024-03-23T12:23:56;0.80;;;0.80;;
84144;SDS011;74264;48.988;12.040;2024-03-23T12:26:22;1.17;;;0.70;;
84144;SDS011;74264;48.988;12.040;2024-03-23T12:28:48;2.08;;;1.52;;
84144;SDS011;74264;48.988;12.040;2024-03-23T12:31:14;2.00;;;1.20;;
84144;SDS011;74264;48.988;12.040;2024-03-23T12:33:39;1.20;;;0.82;;
84144;SDS011;74264;48.988;12.040;2024-03-23T12:36:05;1.38;;;0.90;;
84144;SDS011;74264;48.988;12.040;2024-03-23T12:38:30;1.27;;;1.17;;
84144;SDS011;74264;48.988;12.040;2024-03-23T12:40:56;2.13;;;1.48;;
84144;SDS011;74264;48.988;12.040;2024-03-23T12:43:22;1.30;;;1.20;;
84144;SDS011;74264;48.988;12.040;2024-03-23T12:45:48;1.02;;;1.00;;
84144;SDS011;74264;48.988;12.040;2024-03-23T12:48:14;2.78;;;1.27;;
84144;SDS011;74264;48.988;12.040;2024-03-23T12:50:40;2.67;;;1.27;;
84144;SDS011;74264;48.988;12.040;2024-03-23T12:53:05;1.30;;;1.08;;
84144;SDS011;74264;48.988;12.040;2024-03-23T12:55:31;4.22;;;1.48;;
84144;SDS011;74264;48.988;12.040;2024-03-23T12:57:56;2.45;;;1.23;;
84144;SDS011;74264;48.988;12.040;2024-03-23T13:00:22;2.65;;;1.10;;
84144;SDS011;74264;48.988;12.040;2024-03-23T13:02:47;2.47;;;1.50;;
84144;SDS011;74264;48.988;12.040;2024-03-23T13:05:13;2.72;;;1.30;;
84144;SDS011;74264;48.988;12.040;2024-03-23T13:07:39;1.73;;;1.30;;
84144;SDS011;74264;48.988;12.040;2024-03-23T13:10:05;2.28;;;1.15;;
84144;SDS011;74264;48.988;12.040;2024-03-23T13:12:31;2.85;;;1.40;;
84144;SDS011;74264;48.988;12.040;2024-03-23T13:14:58;2.85;;;1.45;;
84144;SDS011;74264;48.988;12.040;2024-03-23T13:17:25;3.72;;;1.20;;
84144;SDS011;74264;48.988;12.040;2024-03-23T13:19:52;3.22;;;1.60;;
84144;SDS011;74264;48.988;12.040;2024-03-23T13:22:18;4.53;;;1.00;;
84144;SDS011;74264;48.988;12.040;2024-03-23T13:24:44;4.68;;;1.77;;
84144;SDS011;74264;48.988;12.040;2024-03-23T13:27:10;2.13;;;1.48;;
84144;SDS011;74264;48.988;12.040;2024-03-23T13:29:36;8.10;;;1.45;;
84144;SDS011;74264;48.988;12.040;2024-03-23T13:32:03;4.18;;;1.45;;
84144;SDS011;74264;48.988;12.040;2024-03-23T13:34:29;3.38;;;1.88;;
84144;SDS011;74264;48.988;12.040;2024-03-23T13:36:55;2.25;;;1.25;;
84144;SDS011;74264;48.988;12.040;2024-03-23T13:39:23;1.55;;;1.23;;
84144;SDS011;74264;48.988;12.040;2024-03-23T13:41:49;3.75;;;1.60;;
84144;SDS011;74264;48.988;12.040;2024-03-23T13:44:14;2.30;;;1.52;;
84144;SDS011;74264;48.988;12.040;2024-03-23T13:46:41;3.67;;;1.67;;
84144;SDS011;74264;48.988;12.040;2024-03-23T13:49:45;5.60;;;1.70;;
84144;SDS011;74264;48.988;12.040;2024-03-23T13:52:05;3.85;;;1.30;;
84144;SDS011;74264;48.988;12.040;2024-03-23T13:54:32;10.45;;;1.80;;
84144;SDS011;74264;48.988;12.040;2024-03-23T13:56:57;3.08;;;1.65;;
84144;SDS011;74264;48.988;12.040;2024-03-23T13:59:23;4.03;;;1.55;;
84144;SDS011;74264;48.988;12.040;2024-03-23T14:01:49;2.63;;;1.60;;
84144;SDS011;74264;48.988;12.040;2024-03-23T14:04:16;3.47;;;1.75;;
84144;SDS011;74264;48.988;12.040;2024-03-23T14:06:42;3.80;;;1.33;;
84144;SDS011;74264;48.988;12.040;2024-03-23T14:09:11;1.73;;;1.58;;
84144;SDS011;74264;48.988;12.040;2024-03-23T14:11:37;5.20;;;1.63;;
84144;SDS011;74264;48.988;12.040;2024-03-23T14:14:03;2.58;;;1.55;;
84144;SDS011;74264;48.988;12.040;2024-03-23T14:16:29;3.13;;;1.65;;
84144;SDS011;74264;48.988;12.040;2024-03-23T14:18:55;2.80;;;1.52;;
84144;SDS011;74264;48.988;12.040;2024-03-23T14:21:21;3.40;;;1.65;;
84144;SDS011;74264;48.988;12.040;2024-03-23T14:23:47;4.15;;;1.35;;
84144;SDS011;74264;48.988;12.040;2024-03-23T14:26:12;5.57;;;1.73;;
84144;SDS011;74264;48.988;12.040;2024-03-23T14:28:38;6.80;;;1.88;;
84144;SDS011;74264;48.988;12.040;2024-03-23T14:31:03;2.88;;;1.63;;
84144;SDS011;74264;48.988;12.040;2024-03-23T14:33:36;3.37;;;1.27;;
84144;SDS011;74264;48.988;12.040;2024-03-23T14:36:03;8.32;;;1.98;;
84144;SDS011;74264;48.988;12.040;2024-03-23T14:38:29;4.88;;;1.95;;
84144;SDS011;74264;48.988;12.040;2024-03-23T14:40:57;3.55;;;1.83;;
84144;SDS011;74264;48.988;12.040;2024-03-23T14:43:24;5.82;;;1.90;;
84144;SDS011;74264;48.988;12.040;2024-03-23T14:48:35;8.25;;;2.47;;
84144;SDS011;74264;48.988;12.040;2024-03-23T14:51:01;6.20;;;2.90;;
84144;SDS011;74264;48.988;12.040;2024-03-23T14:53:30;2.35;;;1.60;;
84144;SDS011;74264;48.988;12.040;2024-03-23T14:55:59;3.15;;;1.45;;
84144;SDS011;74264;48.988;12.040;2024-03-23T14:58:26;8.35;;;2.08;;
84144;SDS011;74264;48.988;12.040;2024-03-23T15:00:52;7.35;;;1.92;;
84144;SDS011;74264;48.988;12.040;2024-03-23T15:03:18;6.50;;;2.28;;
84144;SDS011;74264;48.988;12.040;2024-03-23T15:05:56;8.20;;;2.20;;
84144;SDS011;74264;48.988;12.040;2024-03-23T15:08:23;4.07;;;2.13;;
84144;SDS011;74264;48.988;12.040;2024-03-23T15:10:49;7.47;;;2.55;;
84144;SDS011;74264;48.988;12.040;2024-03-23T15:13:15;3.17;;;2.47;;
84144;SDS011;74264;48.988;12.040;2024-03-23T15:15:41;4.63;;;3.20;;
84144;SDS011;74264;48.988;12.040;2024-03-23T15:18:11;7.30;;;2.42;;
84144;SDS011;74264;48.988;12.040;2024-03-23T15:20:38;5.90;;;1.90;;
84144;SDS011;74264;48.988;12.040;2024-03-23T15:23:04;4.30;;;2.50;;
84144;SDS011;74264;48.988;12.040;2024-03-23T15:25:30;5.15;;;2.00;;
84144;SDS011;74264;48.988;12.040;2024-03-23T15:27:57;5.47;;;1.98;;
84144;SDS011;74264;48.988;12.040;2024-03-23T15:30:24;9.15;;;1.83;;
84144;SDS011;74264;48.988;12.040;2024-03-23T15:32:50;6.20;;;1.98;;
84144;SDS011;74264;48.988;12.040;2024-03-23T15:35:15;1.92;;;1.55;;
84144;SDS011;74264;48.988;12.040;2024-03-23T15:37:41;7.72;;;2.65;;
84144;SDS011;74264;48.988;12.040;2024-03-23T15:40:07;8.80;;;2.03;;
84144;SDS011;74264;48.988;12.040;2024-03-23T15:42:35;3.15;;;1.95;;